Time;durP1;ratioP1;P1;durP2;ratioP2;P2;SDS_P1;SDS_P2;PMS_P1;PMS_P2;Temp;Humidity;BMP_temperature;BMP_pressure;BME280_temperature;BME280_humidity;BME280_pressure;Samples;Min_cycle;Max_cycle;Signal;HPM_P1;HPM_P2
2022/06/17 00:00:53;;;;;;;;;;;21.70;53.30;;;;;;20823138;28;19929;-71
2022/06/17 00:10:53;;;;;;;;;;;21.60;53.40;;;;;;20837192;28;19932;-70
2022/06/17 00:20:54;;;;;;;;;;;21.50;53.40;;;;;;20818815;28;19917;-72
2022/06/17 00:30:55;;;;;;;;;;;21.60;53.40;;;;;;20835297;28;20347;-71
2022/06/17 00:40:55;;;;;;;;;;;21.60;53.50;;;;;;20841364;28;19923;-70
2022/06/17 00:51:05;;;;;;;;;;;21.60;53.50;;;;;;20847647;28;20602;-70
2022/06/17 01:01:05;;;;;;;;;;;21.60;53.60;;;;;;20832226;28;20440;-70
2022/06/17 01:11:07;;;;;;;;;;;21.50;53.60;;;;;;20815168;28;19917;-70
2022/06/17 01:21:10;;;;;;;;;;;21.50;53.60;;;;;;20808838;28;20011;-70
2022/06/17 01:31:11;;;;;;;;;;;21.50;53.60;;;;;;20825327;28;19975;-71
2022/06/17 01:41:12;;;;;;;;;;;21.50;53.60;;;;;;20833799;28;19956;-71
2022/06/17 01:51:12;;;;;;;;;;;21.40;53.60;;;;;;20801085;28;19925;-71
2022/06/17 02:01:13;;;;;;;;;;;21.40;53.60;;;;;;20844127;28;20331;-70
2022/06/17 02:11:14;;;;;;;;;;;21.40;53.50;;;;;;20827807;28;20293;-70
2022/06/17 02:21:24;;;;;;;;;;;21.40;53.50;;;;;;20828325;28;20321;-70
2022/06/17 02:31:25;;;;;;;;;;;21.40;53.50;;;;;;20811437;28;19921;-70
2022/06/17 02:41:25;;;;;;;;;;;21.30;53.40;;;;;;20815919;28;19921;-69
2022/06/17 02:51:27;;;;;;;;;;;21.30;53.40;;;;;;20843525;28;20339;-74
2022/06/17 03:01:30;;;;;;;;;;;21.30;53.40;;;;;;20842711;28;20364;-70
2022/06/17 03:12:08;;;;;;;;;;;21.20;53.30;;;;;;20835873;28;19974;-69
2022/06/17 03:22:09;;;;;;;;;;;21.20;53.30;;;;;;20826122;28;19917;-70
2022/06/17 03:32:12;;;;;;;;;;;21.20;53.30;;;;;;20838835;28;20364;-71
2022/06/17 03:42:19;;;;;;;;;;;21.20;53.30;;;;;;20829694;28;19971;-69
2022/06/17 03:52:31;;;;;;;;;;;21.20;53.20;;;;;;20843117;28;19969;-73
2022/06/17 04:02:40;;;;;;;;;;;21.10;53.20;;;;;;20838808;28;19917;-70
2022/06/17 04:12:44;;;;;;;;;;;21.10;53.20;;;;;;20835499;28;19927;-71
2022/06/17 04:23:06;;;;;;;;;;;21.10;53.10;;;;;;20855170;28;20271;-75
2022/06/17 04:33:28;;;;;;;;;;;21.20;53.20;;;;;;20823491;28;19921;-73
2022/06/17 04:43:30;;;;;;;;;;;21.10;53.20;;;;;;20802206;28;19952;-70
2022/06/17 04:53:33;;;;;;;;;;;21.10;53.20;;;;;;20828024;28;19917;-74
2022/06/17 05:03:49;;;;;;;;;;;21.10;53.20;;;;;;20823655;28;19944;-72
2022/06/17 05:13:57;;;;;;;;;;;20.90;52.60;;;;;;20864199;28;19921;-76
2022/06/17 05:23:58;;;;;;;;;;;20.90;52.40;;;;;;20804428;28;19917;-71
2022/06/17 05:34:04;;;;;;;;;;;20.90;52.30;;;;;;20815378;28;19921;-71
2022/06/17 05:44:05;;;;;;;;;;;21.00;52.30;;;;;;20822870;28;20020;-72
2022/06/17 05:54:13;;;;;;;;;;;21.00;52.30;;;;;;20829461;28;19917;-72
2022/06/17 06:04:37;;;;;;;;;;;21.00;52.30;;;;;;20807086;28;20399;-72
2022/06/17 06:14:39;;;;;;;;;;;21.00;52.40;;;;;;20832319;28;20327;-73
2022/06/17 06:24:40;;;;;;;;;;;21.10;52.50;;;;;;20821996;28;19927;-72
2022/06/17 06:34:42;;;;;;;;;;;21.10;52.50;;;;;;20841538;28;20292;-73
2022/06/17 06:44:45;;;;;;;;;;;21.10;52.50;;;;;;20836397;28;19972;-72
2022/06/17 06:54:59;;;;;;;;;;;21.10;52.50;;;;;;20828547;28;19917;-72
2022/06/17 07:05:00;;;;;;;;;;;21.10;52.50;;;;;;20846841;28;20299;-71
2022/06/17 07:15:00;;;;;;;;;;;21.20;52.40;;;;;;20843772;28;19928;-71
2022/06/17 07:25:01;;;;;;;;;;;21.20;52.40;;;;;;20835645;28;19921;-70
2022/06/17 07:35:01;;;;;;;;;;;21.20;52.40;;;;;;21166767;22;19936;-71
2022/06/17 07:45:03;;;;;;;;;;;21.20;52.30;;;;;;20811851;28;19924;-71
2022/06/17 07:55:03;;;;;;;;;;;21.30;52.40;;;;;;20806458;28;19928;-74
2022/06/17 08:05:04;;;;;;;;;;;21.30;52.30;;;;;;20855987;28;19913;-75
2022/06/17 08:15:05;;;;;;;;;;;21.30;52.30;;;;;;20802782;28;20015;-75
2022/06/17 08:25:06;;;;;;;;;;;21.30;52.30;;;;;;20830419;28;20421;-74
2022/06/17 08:35:07;;;;;;;;;;;21.30;52.20;;;;;;20824597;28;20335;-75
2022/06/17 08:45:10;;;;;;;;;;;21.40;52.20;;;;;;20797515;28;19956;-75
2022/06/17 08:55:11;;;;;;;;;;;21.40;52.20;;;;;;20820325;28;19971;-75
2022/06/17 09:05:11;;;;;;;;;;;21.40;52.20;;;;;;20796183;28;19917;-72
2022/06/17 09:15:15;;;;;;;;;;;21.40;52.20;;;;;;20823198;28;19936;-73
2022/06/17 09:25:16;;;;;;;;;;;21.40;52.20;;;;;;20813608;28;19948;-73
2022/06/17 09:35:17;;;;;;;;;;;21.40;52.10;;;;;;20832769;28;20008;-74
2022/06/17 09:45:22;;;;;;;;;;;21.40;52.10;;;;;;20825349;28;19963;-73
2022/06/17 09:55:31;;;;;;;;;;;21.30;52.00;;;;;;20829593;28;19955;-73
2022/06/17 10:05:38;;;;;;;;;;;21.50;52.00;;;;;;20839537;28;19917;-74
2022/06/17 10:15:39;;;;;;;;;;;21.50;51.80;;;;;;20807271;28;19927;-74
2022/06/17 10:25:46;;;;;;;;;;;21.50;51.60;;;;;;20816790;28;19952;-70
2022/06/17 10:35:47;;;;;;;;;;;21.50;51.50;;;;;;20791490;28;19955;-73
2022/06/17 10:45:50;;;;;;;;;;;21.50;51.60;;;;;;20859453;28;19939;-73
2022/06/17 10:55:56;;;;;;;;;;;21.50;51.50;;;;;;20807136;28;19925;-73
2022/06/17 11:05:59;;;;;;;;;;;21.50;51.50;;;;;;20829504;28;19959;-71
2022/06/17 11:16:00;;;;;;;;;;;21.50;51.50;;;;;;20855404;28;20070;-71
2022/06/17 11:26:13;;;;;;;;;;;21.50;51.50;;;;;;20825788;28;20272;-73
2022/06/17 11:36:17;;;;;;;;;;;21.60;51.60;;;;;;20854041;28;19928;-72
2022/06/17 11:46:21;;;;;;;;;;;21.60;51.50;;;;;;20829520;28;19966;-72
2022/06/17 11:56:29;;;;;;;;;;;21.60;51.70;;;;;;20839531;28;19932;-80
2022/06/17 12:06:31;;;;;;;;;;;21.60;51.70;;;;;;20839189;28;19919;-74
2022/06/17 12:16:38;;;;;;;;;;;21.60;51.80;;;;;;20846089;28;19928;-72
2022/06/17 12:26:39;;;;;;;;;;;21.60;51.70;;;;;;20810077;28;19913;-73
2022/06/17 12:36:48;;;;;;;;;;;21.70;51.80;;;;;;20806245;28;19931;-72
2022/06/17 12:47:04;;;;;;;;;;;21.70;51.80;;;;;;20837088;28;20015;-75
2022/06/17 12:57:11;;;;;;;;;;;21.70;51.80;;;;;;20830567;28;19921;-75
2022/06/17 13:07:20;;;;;;;;;;;21.80;51.80;;;;;;20849090;28;20020;-72
2022/06/17 13:17:20;;;;;;;;;;;21.90;51.80;;;;;;20836219;28;19967;-74
2022/06/17 13:27:21;;;;;;;;;;;21.80;51.70;;;;;;20828913;28;19944;-73
2022/06/17 13:37:32;;;;;;;;;;;21.90;51.80;;;;;;20830923;28;19925;-73
2022/06/17 13:47:33;;;;;;;;;;;22.00;51.80;;;;;;20821630;28;19913;-73
2022/06/17 13:57:44;;;;;;;;;;;22.00;51.80;;;;;;20840408;28;19927;-73
2022/06/17 14:07:50;;;;;;;;;;;22.00;51.50;;;;;;20797207;28;19913;-73
2022/06/17 14:17:53;;;;;;;;;;;22.10;51.50;;;;;;20825245;28;19925;-73
2022/06/17 14:27:54;;;;;;;;;;;22.00;51.50;;;;;;20831607;28;19920;-73
2022/06/17 14:38:14;;;;;;;;;;;22.10;51.60;;;;;;20800933;28;19921;-73
2022/06/17 14:48:14;;;;;;;;;;;22.10;51.80;;;;;;20861684;28;19920;-73
2022/06/17 14:58:15;;;;;;;;;;;22.00;51.80;;;;;;20859966;28;19925;-73
2022/06/17 15:08:26;;;;;;;;;;;22.00;51.90;;;;;;20845362;28;20592;-73
2022/06/17 15:18:26;;;;;;;;;;;22.00;51.80;;;;;;20825197;28;20427;-73
2022/06/17 15:28:27;;;;;;;;;;;22.00;52.20;;;;;;20819208;28;19996;-74
2022/06/17 15:38:33;;;;;;;;;;;22.20;50.70;;;;;;20844847;28;20386;-73
2022/06/17 15:48:33;;;;;;;;;;;22.30;49.70;;;;;;20799607;28;19913;-77
2022/06/17 15:58:35;;;;;;;;;;;22.40;49.60;;;;;;20829638;28;20368;-73
2022/06/17 16:08:40;;;;;;;;;;;22.30;49.80;;;;;;20838072;28;19971;-69
2022/06/17 16:18:41;;;;;;;;;;;22.20;50.00;;;;;;20837276;28;19925;-71
2022/06/17 16:28:42;;;;;;;;;;;22.20;50.30;;;;;;20837561;28;20389;-71
2022/06/17 16:38:51;;;;;;;;;;;22.30;50.20;;;;;;20804859;28;20059;-70
2022/06/17 16:48:55;;;;;;;;;;;22.20;50.30;;;;;;20797038;28;20282;-74
2022/06/17 16:58:56;;;;;;;;;;;22.20;50.40;;;;;;20825066;28;19932;-73
2022/06/17 17:08:57;;;;;;;;;;;22.20;50.50;;;;;;20798492;28;20011;-73
2022/06/17 17:18:57;;;;;;;;;;;22.20;50.50;;;;;;20788925;28;20047;-77
2022/06/17 17:28:58;;;;;;;;;;;22.20;50.60;;;;;;20828327;28;19967;-73
2022/06/17 17:38:59;;;;;;;;;;;22.10;50.70;;;;;;20789799;28;20350;-74
2022/06/17 17:49:00;;;;;;;;;;;22.10;50.90;;;;;;20829149;28;20011;-72
2022/06/17 17:59:00;;;;;;;;;;;22.20;51.00;;;;;;20845651;28;19970;-72
2022/06/17 18:09:01;;;;;;;;;;;22.10;51.10;;;;;;20830317;28;19917;-70
2022/06/17 18:19:01;;;;;;;;;;;22.10;51.30;;;;;;20813061;28;20043;-72
2022/06/17 18:29:02;;;;;;;;;;;22.20;51.40;;;;;;20828553;28;19939;-76
2022/06/17 18:39:03;;;;;;;;;;;22.10;51.50;;;;;;20827922;28;20008;-73
2022/06/17 18:49:07;;;;;;;;;;;22.10;51.70;;;;;;20827983;28;19967;-73
2022/06/17 18:59:08;;;;;;;;;;;22.10;51.80;;;;;;20793180;28;19921;-73
2022/06/17 19:19:32;;;;;;;;;;;22.10;52.00;;;;;;20813116;28;19929;-73
2022/06/17 19:29:33;;;;;;;;;;;22.00;52.10;;;;;;20830821;28;20017;-74
2022/06/17 19:39:33;;;;;;;;;;;22.00;52.20;;;;;;20807353;28;20394;-73
2022/06/17 19:49:35;;;;;;;;;;;22.00;52.30;;;;;;20838401;28;19917;-75
2022/06/17 19:59:35;;;;;;;;;;;22.00;52.40;;;;;;20808904;28;19921;-74
2022/06/17 20:09:37;;;;;;;;;;;22.00;52.50;;;;;;20849388;28;19920;-74
2022/06/17 20:19:38;;;;;;;;;;;22.00;52.60;;;;;;20836268;28;20326;-74
2022/06/17 20:29:38;;;;;;;;;;;22.00;52.70;;;;;;20835425;28;19913;-73
2022/06/17 20:39:40;;;;;;;;;;;22.00;52.80;;;;;;20807072;28;19990;-73
2022/06/17 20:49:58;;;;;;;;;;;22.00;52.90;;;;;;20834143;28;20402;-74
2022/06/17 20:59:59;;;;;;;;;;;21.90;52.90;;;;;;20810938;28;20375;-74
2022/06/17 21:09:59;;;;;;;;;;;21.90;53.10;;;;;;20846755;28;19921;-75
2022/06/17 21:20:00;;;;;;;;;;;21.90;53.10;;;;;;20838850;28;20569;-73
2022/06/17 21:30:00;;;;;;;;;;;21.90;53.20;;;;;;20819480;28;19917;-75
2022/06/17 21:40:02;;;;;;;;;;;21.90;53.30;;;;;;20824132;28;19931;-75
2022/06/17 21:50:02;;;;;;;;;;;21.90;53.40;;;;;;20832133;28;19916;-74
2022/06/17 22:00:03;;;;;;;;;;;21.90;53.40;;;;;;20799391;28;19921;-74
2022/06/17 22:10:10;;;;;;;;;;;21.80;53.50;;;;;;20818293;28;20371;-74
2022/06/17 22:20:11;;;;;;;;;;;21.90;53.60;;;;;;20827550;28;19959;-74
2022/06/17 22:30:16;;;;;;;;;;;21.80;53.50;;;;;;20827956;28;19920;-74
2022/06/17 22:40:18;;;;;;;;;;;21.80;53.60;;;;;;20794639;28;19929;-75
2022/06/17 22:50:20;;;;;;;;;;;21.80;53.70;;;;;;20788897;28;19924;-75
2022/06/17 23:00:21;;;;;;;;;;;21.80;53.70;;;;;;20857772;28;19921;-75
2022/06/17 23:10:23;;;;;;;;;;;21.80;53.80;;;;;;20842349;28;19935;-74
2022/06/17 23:20:25;;;;;;;;;;;21.80;53.90;;;;;;20857630;28;21793;-74
2022/06/17 23:30:25;;;;;;;;;;;21.80;54.00;;;;;;20824937;28;19913;-73
2022/06/17 23:40:26;;;;;;;;;;;21.80;54.00;;;;;;20811339;28;19927;-75
2022/06/17 23:50:28;;;;;;;;;;;21.80;54.10;;;;;;20859173;28;19946;-75
